sensor_id;sensor_type;location;lat;lon;timestamp;temperature;humidity
23385;DHT22;11865;45.394;10.978;2023-03-03T00:01:05;6.40;99.90
23385;DHT22;11865;45.394;10.978;2023-03-03T00:03:32;6.50;99.90
23385;DHT22;11865;45.394;10.978;2023-03-03T00:06:00;6.50;99.90
23385;DHT22;11865;45.394;10.978;2023-03-03T00:08:28;6.50;99.90
23385;DHT22;11865;45.394;10.978;2023-03-03T00:10:55;6.60;99.90
23385;DHT22;11865;45.394;10.978;2023-03-03T00:13:23;6.50;99.90
23385;DHT22;11865;45.394;10.978;2023-03-03T00:15:51;6.50;99.90
23385;DHT22;11865;45.394;10.978;2023-03-03T00:20:51;6.40;99.90
23385;DHT22;11865;45.394;10.978;2023-03-03T00:23:20;6.40;99.90
23385;DHT22;11865;45.394;10.978;2023-03-03T00:25:50;6.30;99.90
23385;DHT22;11865;45.394;10.978;2023-03-03T00:28:21;6.30;99.90
23385;DHT22;11865;45.394;10.978;2023-03-03T00:30:48;6.30;99.90
23385;DHT22;11865;45.394;10.978;2023-03-03T00:33:32;6.30;99.90
23385;DHT22;11865;45.394;10.978;2023-03-03T00:36:23;6.00;99.90
23385;DHT22;11865;45.394;10.978;2023-03-03T00:38:48;6.10;99.90
23385;DHT22;11865;45.394;10.978;2023-03-03T00:41:21;6.10;99.90
23385;DHT22;11865;45.394;10.978;2023-03-03T00:43:49;6.20;99.90
23385;DHT22;11865;45.394;10.978;2023-03-03T00:46:17;6.20;99.90
23385;DHT22;11865;45.394;10.978;2023-03-03T00:48:45;6.30;99.90
23385;DHT22;11865;45.394;10.978;2023-03-03T00:53:46;6.20;99.90
23385;DHT22;11865;45.394;10.978;2023-03-03T00:56:13;6.10;99.90
23385;DHT22;11865;45.394;10.978;2023-03-03T00:58:41;6.10;99.90
23385;DHT22;11865;45.394;10.978;2023-03-03T01:01:10;6.10;99.90
23385;DHT22;11865;45.394;10.978;2023-03-03T01:03:44;6.10;99.90
23385;DHT22;11865;45.394;10.978;2023-03-03T01:06:11;6.00;99.90
23385;DHT22;11865;45.394;10.978;2023-03-03T01:08:39;5.90;99.90
23385;DHT22;11865;45.394;10.978;2023-03-03T01:11:14;5.90;99.90
23385;DHT22;11865;45.394;10.978;2023-03-03T01:13:43;6.00;99.90
23385;DHT22;11865;45.394;10.978;2023-03-03T01:16:12;6.10;99.90
23385;DHT22;11865;45.394;10.978;2023-03-03T01:18:40;6.20;99.90
23385;DHT22;11865;45.394;10.978;2023-03-03T01:21:08;6.20;99.90
23385;DHT22;11865;45.394;10.978;2023-03-03T01:23:35;6.20;99.90
23385;DHT22;11865;45.394;10.978;2023-03-03T01:26:03;6.20;99.90
23385;DHT22;11865;45.394;10.978;2023-03-03T01:28:31;6.20;99.90
23385;DHT22;11865;45.394;10.978;2023-03-03T01:30:59;6.10;99.90
23385;DHT22;11865;45.394;10.978;2023-03-03T01:33:27;6.10;99.90
23385;DHT22;11865;45.394;10.978;2023-03-03T01:35:54;6.00;99.90
23385;DHT22;11865;45.394;10.978;2023-03-03T01:38:22;5.90;99.90
23385;DHT22;11865;45.394;10.978;2023-03-03T01:40:53;5.50;99.90
23385;DHT22;11865;45.394;10.978;2023-03-03T01:43:20;5.30;99.90
23385;DHT22;11865;45.394;10.978;2023-03-03T01:48:27;5.30;99.90
23385;DHT22;11865;45.394;10.978;2023-03-03T01:53:42;5.80;99.90
23385;DHT22;11865;45.394;10.978;2023-03-03T01:56:10;5.90;99.90
23385;DHT22;11865;45.394;10.978;2023-03-03T01:58:39;5.80;99.90
23385;DHT22;11865;45.394;10.978;2023-03-03T02:01:08;5.90;99.90
23385;DHT22;11865;45.394;10.978;2023-03-03T02:03:38;6.00;99.90
23385;DHT22;11865;45.394;10.978;2023-03-03T02:06:07;6.00;99.90
23385;DHT22;11865;45.394;10.978;2023-03-03T02:08:52;6.00;99.90
23385;DHT22;11865;45.394;10.978;2023-03-03T02:11:20;6.00;99.90
23385;DHT22;11865;45.394;10.978;2023-03-03T02:13:49;6.00;99.90
23385;DHT22;11865;45.394;10.978;2023-03-03T02:16:16;6.00;99.90
23385;DHT22;11865;45.394;10.978;2023-03-03T02:18:44;6.00;99.90
23385;DHT22;11865;45.394;10.978;2023-03-03T02:21:13;6.00;99.90
23385;DHT22;11865;45.394;10.978;2023-03-03T02:26:19;5.80;99.90
23385;DHT22;11865;45.394;10.978;2023-03-03T02:28:51;5.50;99.90
23385;DHT22;11865;45.394;10.978;2023-03-03T02:31:20;5.40;99.90
23385;DHT22;11865;45.394;10.978;2023-03-03T02:33:48;5.50;99.90
23385;DHT22;11865;45.394;10.978;2023-03-03T02:36:20;5.70;99.90
23385;DHT22;11865;45.394;10.978;2023-03-03T02:44:05;5.90;99.90
23385;DHT22;11865;45.394;10.978;2023-03-03T02:46:34;6.00;99.90
23385;DHT22;11865;45.394;10.978;2023-03-03T02:49:02;5.40;99.90
23385;DHT22;11865;45.394;10.978;2023-03-03T02:51:30;4.90;99.90
23385;DHT22;11865;45.394;10.978;2023-03-03T02:53:57;4.90;99.90
23385;DHT22;11865;45.394;10.978;2023-03-03T02:56:27;5.20;99.90
23385;DHT22;11865;45.394;10.978;2023-03-03T02:58:54;5.40;99.90
23385;DHT22;11865;45.394;10.978;2023-03-03T03:01:22;5.60;99.90
23385;DHT22;11865;45.394;10.978;2023-03-03T03:03:51;5.70;99.90
23385;DHT22;11865;45.394;10.978;2023-03-03T03:06:21;5.80;99.90
23385;DHT22;11865;45.394;10.978;2023-03-03T03:08:49;5.80;99.90
23385;DHT22;11865;45.394;10.978;2023-03-03T03:11:16;5.90;99.90
23385;DHT22;11865;45.394;10.978;2023-03-03T03:13:43;5.90;99.90
23385;DHT22;11865;45.394;10.978;2023-03-03T03:16:11;5.80;99.90
23385;DHT22;11865;45.394;10.978;2023-03-03T03:18:39;5.80;99.90
23385;DHT22;11865;45.394;10.978;2023-03-03T03:21:07;5.80;99.90
23385;DHT22;11865;45.394;10.978;2023-03-03T03:23:35;5.80;99.90
23385;DHT22;11865;45.394;10.978;2023-03-03T03:26:02;5.80;99.90
23385;DHT22;11865;45.394;10.978;2023-03-03T03:28:30;5.80;99.90
23385;DHT22;11865;45.394;10.978;2023-03-03T03:30:58;5.80;99.90
23385;DHT22;11865;45.394;10.978;2023-03-03T03:33:26;5.70;99.90
23385;DHT22;11865;45.394;10.978;2023-03-03T03:35:55;5.60;99.90
23385;DHT22;11865;45.394;10.978;2023-03-03T03:38:24;5.30;99.90
23385;DHT22;11865;45.394;10.978;2023-03-03T03:40:53;4.90;99.90
23385;DHT22;11865;45.394;10.978;2023-03-03T03:43:21;4.70;99.90
23385;DHT22;11865;45.394;10.978;2023-03-03T03:45:48;4.50;99.90
23385;DHT22;11865;45.394;10.978;2023-03-03T03:48:16;4.30;99.90
23385;DHT22;11865;45.394;10.978;2023-03-03T03:50:47;4.20;99.90
23385;DHT22;11865;45.394;10.978;2023-03-03T03:53:14;4.10;99.90
23385;DHT22;11865;45.394;10.978;2023-03-03T03:55:43;4.10;99.90
23385;DHT22;11865;45.394;10.978;2023-03-03T03:58:12;4.00;99.90
23385;DHT22;11865;45.394;10.978;2023-03-03T04:00:40;3.80;99.90
23385;DHT22;11865;45.394;10.978;2023-03-03T04:03:08;3.70;99.90
23385;DHT22;11865;45.394;10.978;2023-03-03T04:05:36;3.70;99.90
23385;DHT22;11865;45.394;10.978;2023-03-03T04:08:05;3.60;99.90
23385;DHT22;11865;45.394;10.978;2023-03-03T04:10:33;3.50;99.90
23385;DHT22;11865;45.394;10.978;2023-03-03T04:13:00;3.50;99.90
23385;DHT22;11865;45.394;10.978;2023-03-03T04:15:27;3.50;99.90
23385;DHT22;11865;45.394;10.978;2023-03-03T04:17:55;3.40;99.90
23385;DHT22;11865;45.394;10.978;2023-03-03T04:20:23;3.40;99.90
23385;DHT22;11865;45.394;10.978;2023-03-03T04:22:52;3.40;99.90
23385;DHT22;11865;45.394;10.978;2023-03-03T04:25:19;3.40;99.90
23385;DHT22;11865;45.394;10.978;2023-03-03T04:27:46;3.50;99.90
23385;DHT22;11865;45.394;10.978;2023-03-03T04:30:16;3.40;99.90
23385;DHT22;11865;45.394;10.978;2023-03-03T04:32:47;3.40;99.90
23385;DHT22;11865;45.394;10.978;2023-03-03T04:35:19;3.30;99.90
23385;DHT22;11865;45.394;10.978;2023-03-03T04:37:46;3.20;99.90
23385;DHT22;11865;45.394;10.978;2023-03-03T04:40:14;3.30;99.90
23385;DHT22;11865;45.394;10.978;2023-03-03T04:42:45;3.30;99.90
23385;DHT22;11865;45.394;10.978;2023-03-03T04:45:12;3.20;99.90
23385;DHT22;11865;45.394;10.978;2023-03-03T04:47:40;3.00;99.90
23385;DHT22;11865;45.394;10.978;2023-03-03T04:50:07;3.10;99.90
23385;DHT22;11865;45.394;10.978;2023-03-03T04:52:36;3.20;99.90
23385;DHT22;11865;45.394;10.978;2023-03-03T04:55:04;3.20;99.90
23385;DHT22;11865;45.394;10.978;2023-03-03T04:57:32;3.20;99.90
23385;DHT22;11865;45.394;10.978;2023-03-03T04:59:59;3.20;99.90
23385;DHT22;11865;45.394;10.978;2023-03-03T05:02:27;3.10;99.90
23385;DHT22;11865;45.394;10.978;2023-03-03T05:04:55;3.20;99.90
23385;DHT22;11865;45.394;10.978;2023-03-03T05:07:22;3.40;99.90
23385;DHT22;11865;45.394;10.978;2023-03-03T05:09:50;3.50;99.90
23385;DHT22;11865;45.394;10.978;2023-03-03T05:12:18;3.30;99.90
23385;DHT22;11865;45.394;10.978;2023-03-03T05:14:46;3.20;99.90
23385;DHT22;11865;45.394;10.978;2023-03-03T05:17:13;3.00;99.90
23385;DHT22;11865;45.394;10.978;2023-03-03T05:19:40;2.80;99.90
23385;DHT22;11865;45.394;10.978;2023-03-03T05:22:08;2.80;99.90
23385;DHT22;11865;45.394;10.978;2023-03-03T05:24:36;2.90;99.90
23385;DHT22;11865;45.394;10.978;2023-03-03T05:27:03;3.00;99.90
23385;DHT22;11865;45.394;10.978;2023-03-03T05:29:30;3.30;99.90
23385;DHT22;11865;45.394;10.978;2023-03-03T05:31:59;3.40;99.90
23385;DHT22;11865;45.394;10.978;2023-03-03T05:34:26;3.30;99.90
23385;DHT22;11865;45.394;10.978;2023-03-03T05:36:54;3.50;99.90
23385;DHT22;11865;45.394;10.978;2023-03-03T05:39:21;3.70;99.90
23385;DHT22;11865;45.394;10.978;2023-03-03T05:41:49;3.80;99.90
23385;DHT22;11865;45.394;10.978;2023-03-03T05:44:16;3.50;99.90
23385;DHT22;11865;45.394;10.978;2023-03-03T05:46:46;3.20;99.90
23385;DHT22;11865;45.394;10.978;2023-03-03T05:49:13;3.20;99.90
23385;DHT22;11865;45.394;10.978;2023-03-03T05:51:41;3.10;99.90
23385;DHT22;11865;45.394;10.978;2023-03-03T05:54:08;3.00;99.90
23385;DHT22;11865;45.394;10.978;2023-03-03T05:56:35;3.00;99.90
23385;DHT22;11865;45.394;10.978;2023-03-03T05:59:02;3.00;99.90
23385;DHT22;11865;45.394;10.978;2023-03-03T06:01:29;3.00;99.90
23385;DHT22;11865;45.394;10.978;2023-03-03T06:03:57;3.10;99.90
23385;DHT22;11865;45.394;10.978;2023-03-03T06:06:24;3.10;99.90
23385;DHT22;11865;45.394;10.978;2023-03-03T06:08:51;3.00;99.90
23385;DHT22;11865;45.394;10.978;2023-03-03T06:11:23;3.10;99.90
23385;DHT22;11865;45.394;10.978;2023-03-03T06:13:50;3.20;99.90
23385;DHT22;11865;45.394;10.978;2023-03-03T06:16:17;3.40;99.90
23385;DHT22;11865;45.394;10.978;2023-03-03T06:18:45;3.50;99.90
23385;DHT22;11865;45.394;10.978;2023-03-03T06:21:12;3.70;99.90
23385;DHT22;11865;45.394;10.978;2023-03-03T06:23:40;4.00;99.90
23385;DHT22;11865;45.394;10.978;2023-03-03T06:26:07;4.00;99.90
23385;DHT22;11865;45.394;10.978;2023-03-03T06:28:34;4.30;99.90
23385;DHT22;11865;45.394;10.978;2023-03-03T06:31:02;4.60;99.90
23385;DHT22;11865;45.394;10.978;2023-03-03T06:33:29;4.80;99.90
23385;DHT22;11865;45.394;10.978;2023-03-03T06:35:56;4.80;99.90
23385;DHT22;11865;45.394;10.978;2023-03-03T06:38:24;4.90;99.90
23385;DHT22;11865;45.394;10.978;2023-03-03T06:40:51;4.90;99.90
23385;DHT22;11865;45.394;10.978;2023-03-03T06:43:19;5.00;99.90
23385;DHT22;11865;45.394;10.978;2023-03-03T06:45:46;5.10;99.90
23385;DHT22;11865;45.394;10.978;2023-03-03T06:48:13;5.20;99.90
23385;DHT22;11865;45.394;10.978;2023-03-03T06:50:40;5.20;99.90
23385;DHT22;11865;45.394;10.978;2023-03-03T06:53:13;5.50;99.90
23385;DHT22;11865;45.394;10.978;2023-03-03T06:55:40;6.10;99.90
23385;DHT22;11865;45.394;10.978;2023-03-03T06:58:11;6.90;99.90
23385;DHT22;11865;45.394;10.978;2023-03-03T07:00:40;8.20;99.90
23385;DHT22;11865;45.394;10.978;2023-03-03T07:03:15;9.00;99.90
23385;DHT22;11865;45.394;10.978;2023-03-03T07:05:43;9.60;99.90
23385;DHT22;11865;45.394;10.978;2023-03-03T07:08:12;9.50;99.90
23385;DHT22;11865;45.394;10.978;2023-03-03T07:10:40;8.70;99.90
23385;DHT22;11865;45.394;10.978;2023-03-03T07:15:40;7.60;99.90
23385;DHT22;11865;45.394;10.978;2023-03-03T07:20:55;7.40;99.90
23385;DHT22;11865;45.394;10.978;2023-03-03T07:23:24;7.60;99.90
23385;DHT22;11865;45.394;10.978;2023-03-03T07:25:52;7.80;99.90
23385;DHT22;11865;45.394;10.978;2023-03-03T07:30:47;8.20;99.90
23385;DHT22;11865;45.394;10.978;2023-03-03T07:33:19;8.40;99.90
23385;DHT22;11865;45.394;10.978;2023-03-03T07:35:50;8.60;99.90
23385;DHT22;11865;45.394;10.978;2023-03-03T07:38:34;8.90;99.90
23385;DHT22;11865;45.394;10.978;2023-03-03T07:41:02;9.10;99.90
23385;DHT22;11865;45.394;10.978;2023-03-03T07:43:37;9.10;99.90
23385;DHT22;11865;45.394;10.978;2023-03-03T07:48:37;9.30;99.90
23385;DHT22;11865;45.394;10.978;2023-03-03T07:53:48;9.40;99.90
23385;DHT22;11865;45.394;10.978;2023-03-03T07:56:36;9.40;99.90
23385;DHT22;11865;45.394;10.978;2023-03-03T07:59:12;9.30;99.90
23385;DHT22;11865;45.394;10.978;2023-03-03T08:01:45;9.50;99.90
23385;DHT22;11865;45.394;10.978;2023-03-03T08:04:16;9.70;99.90
23385;DHT22;11865;45.394;10.978;2023-03-03T08:06:51;9.80;99.90
23385;DHT22;11865;45.394;10.978;2023-03-03T08:11:54;10.00;99.90
23385;DHT22;11865;45.394;10.978;2023-03-03T08:14:44;10.30;99.90
23385;DHT22;11865;45.394;10.978;2023-03-03T08:17:22;10.30;99.90
23385;DHT22;11865;45.394;10.978;2023-03-03T08:19:50;10.40;99.90
23385;DHT22;11865;45.394;10.978;2023-03-03T08:22:24;10.50;99.90
23385;DHT22;11865;45.394;10.978;2023-03-03T08:24:56;10.80;99.90
23385;DHT22;11865;45.394;10.978;2023-03-03T08:27:23;11.00;99.90
23385;DHT22;11865;45.394;10.978;2023-03-03T08:29:50;10.80;99.90
23385;DHT22;11865;45.394;10.978;2023-03-03T08:32:17;11.00;99.90
23385;DHT22;11865;45.394;10.978;2023-03-03T08:34:45;10.90;99.90
23385;DHT22;11865;45.394;10.978;2023-03-03T08:37:12;11.20;99.90
23385;DHT22;11865;45.394;10.978;2023-03-03T08:39:39;11.20;99.90
23385;DHT22;11865;45.394;10.978;2023-03-03T08:42:07;11.40;99.90
23385;DHT22;11865;45.394;10.978;2023-03-03T08:44:34;11.40;99.90
23385;DHT22;11865;45.394;10.978;2023-03-03T08:47:01;11.20;99.90
23385;DHT22;11865;45.394;10.978;2023-03-03T08:49:28;11.60;99.90
23385;DHT22;11865;45.394;10.978;2023-03-03T08:54:23;11.60;99.90
23385;DHT22;11865;45.394;10.978;2023-03-03T08:56:51;11.70;99.90
23385;DHT22;11865;45.394;10.978;2023-03-03T08:59:18;11.60;99.90
23385;DHT22;11865;45.394;10.978;2023-03-03T09:01:46;11.50;99.90
23385;DHT22;11865;45.394;10.978;2023-03-03T09:04:13;11.50;99.90
23385;DHT22;11865;45.394;10.978;2023-03-03T09:06:41;11.60;99.90
23385;DHT22;11865;45.394;10.978;2023-03-03T09:09:08;11.60;99.90
23385;DHT22;11865;45.394;10.978;2023-03-03T09:11:35;12.00;99.90
23385;DHT22;11865;45.394;10.978;2023-03-03T09:16:34;12.30;99.90
23385;DHT22;11865;45.394;10.978;2023-03-03T09:24:41;12.50;99.90
23385;DHT22;11865;45.394;10.978;2023-03-03T09:27:21;12.30;99.90
23385;DHT22;11865;45.394;10.978;2023-03-03T09:29:52;12.70;99.70
23385;DHT22;11865;45.394;10.978;2023-03-03T09:32:36;12.60;99.90
23385;DHT22;11865;45.394;10.978;2023-03-03T09:35:51;12.80;99.90
23385;DHT22;11865;45.394;10.978;2023-03-03T09:37:53;12.90;99.90
23385;DHT22;11865;45.394;10.978;2023-03-03T09:43:08;12.80;99.50
23385;DHT22;11865;45.394;10.978;2023-03-03T09:56:16;12.50;99.80
23385;DHT22;11865;45.394;10.978;2023-03-03T10:25:21;13.60;98.20
23385;DHT22;11865;45.394;10.978;2023-03-03T10:27:55;13.70;99.70
23385;DHT22;11865;45.394;10.978;2023-03-03T10:43:41;13.70;99.20
23385;DHT22;11865;45.394;10.978;2023-03-03T10:51:52;13.90;97.60
23385;DHT22;11865;45.394;10.978;2023-03-03T11:12:08;13.50;98.90
23385;DHT22;11865;45.394;10.978;2023-03-03T11:32:57;13.90;97.30
23385;DHT22;11865;45.394;10.978;2023-03-03T11:35:44;13.80;96.90
23385;DHT22;11865;45.394;10.978;2023-03-03T11:43:27;14.10;95.70
23385;DHT22;11865;45.394;10.978;2023-03-03T11:46:13;14.10;95.10
23385;DHT22;11865;45.394;10.978;2023-03-03T11:48:45;14.40;95.10
23385;DHT22;11865;45.394;10.978;2023-03-03T11:54:04;14.80;96.40
23385;DHT22;11865;45.394;10.978;2023-03-03T11:56:39;14.90;96.20
23385;DHT22;11865;45.394;10.978;2023-03-03T11:59:16;14.80;94.80
23385;DHT22;11865;45.394;10.978;2023-03-03T12:04:14;15.00;93.10
23385;DHT22;11865;45.394;10.978;2023-03-03T12:07:05;15.30;93.10
23385;DHT22;11865;45.394;10.978;2023-03-03T12:12:18;15.40;93.10
23385;DHT22;11865;45.394;10.978;2023-03-03T12:28:19;15.20;93.00
23385;DHT22;11865;45.394;10.978;2023-03-03T12:36:01;15.00;91.90
23385;DHT22;11865;45.394;10.978;2023-03-03T12:38:47;15.00;91.80
23385;DHT22;11865;45.394;10.978;2023-03-03T12:43:55;14.80;92.60
23385;DHT22;11865;45.394;10.978;2023-03-03T12:46:27;14.70;92.40
23385;DHT22;11865;45.394;10.978;2023-03-03T12:49:00;14.70;92.90
23385;DHT22;11865;45.394;10.978;2023-03-03T12:56:54;14.60;92.30
23385;DHT22;11865;45.394;10.978;2023-03-03T12:59:32;14.50;93.40
23385;DHT22;11865;45.394;10.978;2023-03-03T13:04:47;14.90;92.60
23385;DHT22;11865;45.394;10.978;2023-03-03T13:07:30;14.90;92.10
23385;DHT22;11865;45.394;10.978;2023-03-03T13:12:42;15.00;93.30
23385;DHT22;11865;45.394;10.978;2023-03-03T13:15:20;15.10;93.20
23385;DHT22;11865;45.394;10.978;2023-03-03T13:20:47;14.90;92.40
23385;DHT22;11865;45.394;10.978;2023-03-03T13:23:23;14.90;93.70
23385;DHT22;11865;45.394;10.978;2023-03-03T13:31:18;15.10;92.70
23385;DHT22;11865;45.394;10.978;2023-03-03T13:33:56;15.20;92.00
23385;DHT22;11865;45.394;10.978;2023-03-03T13:36:37;15.40;93.10
23385;DHT22;11865;45.394;10.978;2023-03-03T13:39:17;15.50;93.00
23385;DHT22;11865;45.394;10.978;2023-03-03T13:44:19;15.50;91.20
23385;DHT22;11865;45.394;10.978;2023-03-03T13:46:55;15.70;92.80
23385;DHT22;11865;45.394;10.978;2023-03-03T13:52:02;15.00;91.00
23385;DHT22;11865;45.394;10.978;2023-03-03T14:05:00;15.10;91.10
23385;DHT22;11865;45.394;10.978;2023-03-03T14:07:37;15.00;90.90
23385;DHT22;11865;45.394;10.978;2023-03-03T14:10:12;15.10;91.20
23385;DHT22;11865;45.394;10.978;2023-03-03T14:15:15;14.90;90.70
23385;DHT22;11865;45.394;10.978;2023-03-03T14:17:53;14.80;90.40
23385;DHT22;11865;45.394;10.978;2023-03-03T14:20:23;15.10;91.00
23385;DHT22;11865;45.394;10.978;2023-03-03T14:22:57;14.90;90.10
23385;DHT22;11865;45.394;10.978;2023-03-03T14:25:25;14.80;90.50
23385;DHT22;11865;45.394;10.978;2023-03-03T14:27:57;14.80;90.60
23385;DHT22;11865;45.394;10.978;2023-03-03T14:33:13;15.00;91.40
23385;DHT22;11865;45.394;10.978;2023-03-03T14:35:42;15.00;91.50
23385;DHT22;11865;45.394;10.978;2023-03-03T14:38:14;15.10;91.30
23385;DHT22;11865;45.394;10.978;2023-03-03T14:40:42;15.10;91.50
23385;DHT22;11865;45.394;10.978;2023-03-03T14:43:22;14.90;91.40
23385;DHT22;11865;45.394;10.978;2023-03-03T14:45:51;14.90;91.40
23385;DHT22;11865;45.394;10.978;2023-03-03T14:48:19;15.00;91.30
23385;DHT22;11865;45.394;10.978;2023-03-03T14:55:46;14.60;92.60
23385;DHT22;11865;45.394;10.978;2023-03-03T14:58:24;15.00;92.60
23385;DHT22;11865;45.394;10.978;2023-03-03T15:01:34;14.90;92.60
23385;DHT22;11865;45.394;10.978;2023-03-03T15:03:46;14.70;92.10
23385;DHT22;11865;45.394;10.978;2023-03-03T15:06:26;14.60;92.70
23385;DHT22;11865;45.394;10.978;2023-03-03T15:08:54;14.60;92.40
23385;DHT22;11865;45.394;10.978;2023-03-03T15:11:31;14.70;93.20
23385;DHT22;11865;45.394;10.978;2023-03-03T15:14:13;14.60;93.10
23385;DHT22;11865;45.394;10.978;2023-03-03T15:16:40;14.80;94.30
23385;DHT22;11865;45.394;10.978;2023-03-03T15:22:19;14.50;93.20
23385;DHT22;11865;45.394;10.978;2023-03-03T15:24:55;14.40;93.50
23385;DHT22;11865;45.394;10.978;2023-03-03T15:27:28;14.50;94.60
23385;DHT22;11865;45.394;10.978;2023-03-03T15:30:03;14.60;94.20
23385;DHT22;11865;45.394;10.978;2023-03-03T15:32:42;14.40;93.90
23385;DHT22;11865;45.394;10.978;2023-03-03T15:37:48;14.30;94.30
23385;DHT22;11865;45.394;10.978;2023-03-03T15:42:49;14.30;94.10
23385;DHT22;11865;45.394;10.978;2023-03-03T16:01:02;14.10;95.70
23385;DHT22;11865;45.394;10.978;2023-03-03T16:03:46;14.10;96.10
23385;DHT22;11865;45.394;10.978;2023-03-03T16:06:52;14.10;96.10
23385;DHT22;11865;45.394;10.978;2023-03-03T16:17:26;13.90;97.10
23385;DHT22;11865;45.394;10.978;2023-03-03T16:27:51;13.50;98.30
23385;DHT22;11865;45.394;10.978;2023-03-03T16:30:35;13.50;98.20
23385;DHT22;11865;45.394;10.978;2023-03-03T16:35:41;13.50;99.20
23385;DHT22;11865;45.394;10.978;2023-03-03T16:38:18;13.40;99.10
23385;DHT22;11865;45.394;10.978;2023-03-03T16:46:01;13.00;99.90
23385;DHT22;11865;45.394;10.978;2023-03-03T16:48:40;12.90;99.90
23385;DHT22;11865;45.394;10.978;2023-03-03T16:51:13;12.80;99.80
23385;DHT22;11865;45.394;10.978;2023-03-03T16:53:46;12.60;99.90
23385;DHT22;11865;45.394;10.978;2023-03-03T16:56:35;12.50;99.90
23385;DHT22;11865;45.394;10.978;2023-03-03T16:59:09;12.30;99.90
23385;DHT22;11865;45.394;10.978;2023-03-03T17:04:20;11.90;99.90
23385;DHT22;11865;45.394;10.978;2023-03-03T17:07:07;11.70;99.90
23385;DHT22;11865;45.394;10.978;2023-03-03T17:10:21;11.80;99.90
23385;DHT22;11865;45.394;10.978;2023-03-03T17:25:28;10.70;99.90
23385;DHT22;11865;45.394;10.978;2023-03-03T17:38:33;10.40;99.90
23385;DHT22;11865;45.394;10.978;2023-03-03T17:41:05;10.50;99.90
23385;DHT22;11865;45.394;10.978;2023-03-03T17:51:49;10.70;99.90
23385;DHT22;11865;45.394;10.978;2023-03-03T17:56:52;10.80;99.90
23385;DHT22;11865;45.394;10.978;2023-03-03T17:59:36;10.50;99.90
23385;DHT22;11865;45.394;10.978;2023-03-03T18:02:17;10.10;99.90
23385;DHT22;11865;45.394;10.978;2023-03-03T18:13:29;9.80;99.90
23385;DHT22;11865;45.394;10.978;2023-03-03T18:18:59;10.50;99.90
23385;DHT22;11865;45.394;10.978;2023-03-03T18:26:42;11.30;99.90
23385;DHT22;11865;45.394;10.978;2023-03-03T18:29:11;11.30;99.90
23385;DHT22;11865;45.394;10.978;2023-03-03T18:31:46;11.30;99.90
23385;DHT22;11865;45.394;10.978;2023-03-03T18:36:52;10.50;99.90
23385;DHT22;11865;45.394;10.978;2023-03-03T18:39:39;10.50;99.90
23385;DHT22;11865;45.394;10.978;2023-03-03T18:42:08;10.70;99.90
23385;DHT22;11865;45.394;10.978;2023-03-03T18:44:36;10.80;99.90
23385;DHT22;11865;45.394;10.978;2023-03-03T18:47:03;11.00;99.90
23385;DHT22;11865;45.394;10.978;2023-03-03T18:49:47;11.00;99.90
23385;DHT22;11865;45.394;10.978;2023-03-03T18:52:20;10.80;99.90
23385;DHT22;11865;45.394;10.978;2023-03-03T18:54:59;10.60;99.90
23385;DHT22;11865;45.394;10.978;2023-03-03T18:57:27;10.80;99.90
23385;DHT22;11865;45.394;10.978;2023-03-03T18:59:55;10.80;99.90
23385;DHT22;11865;45.394;10.978;2023-03-03T19:02:28;10.40;99.90
23385;DHT22;11865;45.394;10.978;2023-03-03T19:07:51;9.20;99.90
23385;DHT22;11865;45.394;10.978;2023-03-03T19:20:24;8.10;99.90
23385;DHT22;11865;45.394;10.978;2023-03-03T19:23:01;8.40;99.90
23385;DHT22;11865;45.394;10.978;2023-03-03T19:25:30;8.70;99.90
23385;DHT22;11865;45.394;10.978;2023-03-03T19:33:21;9.10;99.90
23385;DHT22;11865;45.394;10.978;2023-03-03T19:48:39;8.50;99.90
23385;DHT22;11865;45.394;10.978;2023-03-03T19:53:44;8.60;99.90
23385;DHT22;11865;45.394;10.978;2023-03-03T19:59:12;8.60;99.90
23385;DHT22;11865;45.394;10.978;2023-03-03T20:18:20;8.90;99.90
23385;DHT22;11865;45.394;10.978;2023-03-03T20:23:31;8.30;99.90
23385;DHT22;11865;45.394;10.978;2023-03-03T20:31:20;7.80;99.90
23385;DHT22;11865;45.394;10.978;2023-03-03T20:57:46;8.30;99.90
23385;DHT22;11865;45.394;10.978;2023-03-03T21:00:37;7.90;99.90
23385;DHT22;11865;45.394;10.978;2023-03-03T21:03:17;7.90;99.90
23385;DHT22;11865;45.394;10.978;2023-03-03T21:05:59;8.00;99.90
23385;DHT22;11865;45.394;10.978;2023-03-03T21:11:13;8.70;99.90
23385;DHT22;11865;45.394;10.978;2023-03-03T21:13:41;8.90;99.90
23385;DHT22;11865;45.394;10.978;2023-03-03T21:18:37;9.00;99.90
23385;DHT22;11865;45.394;10.978;2023-03-03T21:21:04;9.10;99.90
23385;DHT22;11865;45.394;10.978;2023-03-03T21:23:32;9.00;99.90
23385;DHT22;11865;45.394;10.978;2023-03-03T21:25:59;9.10;99.90
23385;DHT22;11865;45.394;10.978;2023-03-03T21:28:28;9.20;99.90
23385;DHT22;11865;45.394;10.978;2023-03-03T21:36:21;9.40;99.90
23385;DHT22;11865;45.394;10.978;2023-03-03T21:38:50;9.40;99.90
23385;DHT22;11865;45.394;10.978;2023-03-03T21:41:18;9.40;99.90
23385;DHT22;11865;45.394;10.978;2023-03-03T21:43:46;9.40;99.90
23385;DHT22;11865;45.394;10.978;2023-03-03T21:46:18;9.40;99.90
23385;DHT22;11865;45.394;10.978;2023-03-03T21:48:45;9.50;99.90
23385;DHT22;11865;45.394;10.978;2023-03-03T21:51:12;9.40;99.90
23385;DHT22;11865;45.394;10.978;2023-03-03T21:53:43;9.40;99.90
23385;DHT22;11865;45.394;10.978;2023-03-03T21:56:10;9.40;99.90
23385;DHT22;11865;45.394;10.978;2023-03-03T21:58:40;9.40;99.90
23385;DHT22;11865;45.394;10.978;2023-03-03T22:01:07;9.30;99.90
23385;DHT22;11865;45.394;10.978;2023-03-03T22:03:35;9.20;99.90
23385;DHT22;11865;45.394;10.978;2023-03-03T22:06:02;9.30;99.90
23385;DHT22;11865;45.394;10.978;2023-03-03T22:08:29;9.40;99.90
23385;DHT22;11865;45.394;10.978;2023-03-03T22:10:57;9.40;99.90
23385;DHT22;11865;45.394;10.978;2023-03-03T22:13:24;9.40;99.90
23385;DHT22;11865;45.394;10.978;2023-03-03T22:15:53;9.40;99.90
23385;DHT22;11865;45.394;10.978;2023-03-03T22:18:21;9.50;99.90
23385;DHT22;11865;45.394;10.978;2023-03-03T22:20:48;9.40;99.90
23385;DHT22;11865;45.394;10.978;2023-03-03T22:23:16;9.50;99.90
23385;DHT22;11865;45.394;10.978;2023-03-03T22:25:44;9.50;99.90
23385;DHT22;11865;45.394;10.978;2023-03-03T22:28:12;9.50;99.90
23385;DHT22;11865;45.394;10.978;2023-03-03T22:30:40;9.40;99.90
23385;DHT22;11865;45.394;10.978;2023-03-03T22:33:07;9.20;99.90
23385;DHT22;11865;45.394;10.978;2023-03-03T22:35:34;9.10;99.90
23385;DHT22;11865;45.394;10.978;2023-03-03T22:38:01;9.20;99.90
23385;DHT22;11865;45.394;10.978;2023-03-03T22:40:29;9.30;99.90
23385;DHT22;11865;45.394;10.978;2023-03-03T22:42:58;9.40;99.90
23385;DHT22;11865;45.394;10.978;2023-03-03T22:45:25;9.30;99.90